FNUG

Uige Airport

Uige, Angola
METAR FNUG 221600Z 12006KT 9999 SCT019 BKN090 25/19 Q1010
Observed Flight Rules
Oct-22 @ 16:00 UTC (3 hours ago) Visual Flight Rules
Wind Visibility Clouds
120° at 6 knots 10,000+ meters
  • Scattered at 1,900' AGL
  • Broken at 9,000' AGL
Temperatures Readings
Current 25°C / 77°F
Dewpoint 19°C / 66°F
Humidity 69%
Altimeter 29.82" Hg
Pressure 1010 hPa
Elevation 829
METAR FNUG 221600Z 12006KT 9999 SCT019 BKN090 25/19 Q1010
Observed Flight Rules
Oct-22 @ 16:00 UTC
(3 hours ago)
VFR
Wind Visibility
120° at 6 knots 10,000+ meters
Clouds
  • Scattered at 1,900' AGL
  • Broken at 9,000' AGL
Temperature Dewpoint
25°C / 77°F 19°C / 66°F
Humidity Altimeter Pressure
69% 29.82" Hg 1010 hPa